sensor_id;sensor_type;location;lat;lon;timestamp;P1;durP1;ratioP1;P2;durP2;ratioP2
50543;SDS011;41176;44.032;20.900;2022-07-31T05:52:30;6.85;;;4.80;;
50543;SDS011;41176;44.032;20.900;2022-07-31T05:54:56;6.78;;;4.50;;
50543;SDS011;41176;44.032;20.900;2022-07-31T05:57:22;8.32;;;4.20;;
50543;SDS011;41176;44.032;20.900;2022-07-31T05:59:47;5.40;;;3.92;;
50543;SDS011;41176;44.032;20.900;2022-07-31T06:02:13;5.22;;;4.05;;
50543;SDS011;41176;44.032;20.900;2022-07-31T06:04:51;5.00;;;3.45;;
50543;SDS011;41176;44.032;20.900;2022-07-31T06:07:17;6.70;;;3.80;;
50543;SDS011;41176;44.032;20.900;2022-07-31T06:09:43;5.43;;;3.80;;
50543;SDS011;41176;44.032;20.900;2022-07-31T06:12:08;4.35;;;3.45;;
50543;SDS011;41176;44.032;20.900;2022-07-31T06:14:34;6.43;;;4.20;;
50543;SDS011;41176;44.032;20.900;2022-07-31T06:17:03;5.10;;;3.58;;
50543;SDS011;41176;44.032;20.900;2022-07-31T06:19:31;4.75;;;3.28;;
50543;SDS011;41176;44.032;20.900;2022-07-31T06:21:59;5.25;;;3.50;;
50543;SDS011;41176;44.032;20.900;2022-07-31T06:24:25;4.68;;;3.20;;
50543;SDS011;41176;44.032;20.900;2022-07-31T06:26:55;5.65;;;3.08;;
50543;SDS011;41176;44.032;20.900;2022-07-31T06:29:21;4.75;;;3.33;;
50543;SDS011;41176;44.032;20.900;2022-07-31T06:31:47;5.50;;;3.63;;
50543;SDS011;41176;44.032;20.900;2022-07-31T06:34:16;5.45;;;3.05;;
50543;SDS011;41176;44.032;20.900;2022-07-31T06:36:45;4.97;;;3.15;;
50543;SDS011;41176;44.032;20.900;2022-07-31T06:39:11;3.55;;;2.58;;
50543;SDS011;41176;44.032;20.900;2022-07-31T06:41:36;3.80;;;2.85;;
50543;SDS011;41176;44.032;20.900;2022-07-31T06:44:08;4.53;;;2.90;;
50543;SDS011;41176;44.032;20.900;2022-07-31T06:46:35;4.57;;;3.08;;
50543;SDS011;41176;44.032;20.900;2022-07-31T06:49:01;3.72;;;2.88;;
50543;SDS011;41176;44.032;20.900;2022-07-31T06:51:27;3.70;;;2.72;;
50543;SDS011;41176;44.032;20.900;2022-07-31T06:53:53;4.90;;;2.50;;
50543;SDS011;41176;44.032;20.900;2022-07-31T06:56:19;3.50;;;2.70;;
50543;SDS011;41176;44.032;20.900;2022-07-31T06:58:45;3.83;;;2.72;;
50543;SDS011;41176;44.032;20.900;2022-07-31T07:01:10;3.92;;;2.55;;
50543;SDS011;41176;44.032;20.900;2022-07-31T07:03:36;3.40;;;2.70;;
50543;SDS011;41176;44.032;20.900;2022-07-31T07:06:02;5.32;;;3.10;;
50543;SDS011;41176;44.032;20.900;2022-07-31T07:08:28;3.92;;;2.85;;
50543;SDS011;41176;44.032;20.900;2022-07-31T07:10:54;4.32;;;2.95;;
50543;SDS011;41176;44.032;20.900;2022-07-31T07:13:20;5.47;;;3.55;;
50543;SDS011;41176;44.032;20.900;2022-07-31T07:15:46;5.10;;;3.38;;
50543;SDS011;41176;44.032;20.900;2022-07-31T07:18:11;6.22;;;3.20;;
50543;SDS011;41176;44.032;20.900;2022-07-31T07:20:41;5.10;;;3.28;;
50543;SDS011;41176;44.032;20.900;2022-07-31T07:29:43;5.15;;;3.70;;
50543;SDS011;41176;44.032;20.900;2022-07-31T07:32:40;6.03;;;3.88;;
50543;SDS011;41176;44.032;20.900;2022-07-31T07:38:44;4.85;;;3.30;;
50543;SDS011;41176;44.032;20.900;2022-07-31T07:45:09;4.03;;;3.20;;
50543;SDS011;41176;44.032;20.900;2022-07-31T07:47:35;4.70;;;3.40;;
50543;SDS011;41176;44.032;20.900;2022-07-31T07:56:59;4.72;;;3.75;;
50543;SDS011;41176;44.032;20.900;2022-07-31T07:59:33;4.43;;;3.63;;
50543;SDS011;41176;44.032;20.900;2022-07-31T08:02:00;4.68;;;3.83;;
50543;SDS011;41176;44.032;20.900;2022-07-31T08:04:25;6.03;;;4.32;;
50543;SDS011;41176;44.032;20.900;2022-07-31T08:06:51;4.95;;;3.50;;
50543;SDS011;41176;44.032;20.900;2022-07-31T08:09:17;6.10;;;4.57;;
50543;SDS011;41176;44.032;20.900;2022-07-31T08:11:45;6.13;;;4.80;;
50543;SDS011;41176;44.032;20.900;2022-07-31T08:14:10;6.00;;;4.80;;
50543;SDS011;41176;44.032;20.900;2022-07-31T08:16:36;5.93;;;4.65;;
50543;SDS011;41176;44.032;20.900;2022-07-31T08:19:02;5.63;;;4.35;;
50543;SDS011;41176;44.032;20.900;2022-07-31T08:21:27;5.15;;;4.47;;
50543;SDS011;41176;44.032;20.900;2022-07-31T08:23:53;6.82;;;4.57;;
50543;SDS011;41176;44.032;20.900;2022-07-31T08:26:19;4.72;;;4.03;;
50543;SDS011;41176;44.032;20.900;2022-07-31T08:28:45;5.05;;;3.88;;
50543;SDS011;41176;44.032;20.900;2022-07-31T08:31:11;4.50;;;3.83;;
50543;SDS011;41176;44.032;20.900;2022-07-31T08:33:36;5.50;;;4.10;;
50543;SDS011;41176;44.032;20.900;2022-07-31T08:36:02;4.65;;;3.70;;
50543;SDS011;41176;44.032;20.900;2022-07-31T08:38:28;5.03;;;3.97;;
50543;SDS011;41176;44.032;20.900;2022-07-31T08:40:54;5.03;;;3.78;;
50543;SDS011;41176;44.032;20.900;2022-07-31T08:43:20;5.03;;;4.30;;
50543;SDS011;41176;44.032;20.900;2022-07-31T08:45:46;5.75;;;3.60;;
50543;SDS011;41176;44.032;20.900;2022-07-31T08:48:39;4.28;;;3.20;;
50543;SDS011;41176;44.032;20.900;2022-07-31T08:51:18;3.83;;;3.15;;
50543;SDS011;41176;44.032;20.900;2022-07-31T08:54:01;4.47;;;3.50;;
50543;SDS011;41176;44.032;20.900;2022-07-31T08:57:09;4.90;;;3.22;;
50543;SDS011;41176;44.032;20.900;2022-07-31T09:00:00;4.65;;;3.70;;
50543;SDS011;41176;44.032;20.900;2022-07-31T09:02:39;4.18;;;3.38;;
50543;SDS011;41176;44.032;20.900;2022-07-31T09:08:05;4.43;;;3.72;;
50543;SDS011;41176;44.032;20.900;2022-07-31T09:10:30;4.60;;;3.90;;
50543;SDS011;41176;44.032;20.900;2022-07-31T09:13:15;4.30;;;3.70;;
50543;SDS011;41176;44.032;20.900;2022-07-31T09:15:46;6.38;;;3.83;;
50543;SDS011;41176;44.032;20.900;2022-07-31T09:18:18;4.40;;;3.63;;
50543;SDS011;41176;44.032;20.900;2022-07-31T09:20:52;4.25;;;3.72;;
50543;SDS011;41176;44.032;20.900;2022-07-31T09:23:31;4.22;;;3.65;;
50543;SDS011;41176;44.032;20.900;2022-07-31T09:32:11;4.45;;;3.80;;
50543;SDS011;41176;44.032;20.900;2022-07-31T09:34:38;4.50;;;4.07;;
50543;SDS011;41176;44.032;20.900;2022-07-31T09:37:15;4.68;;;4.15;;
50543;SDS011;41176;44.032;20.900;2022-07-31T09:39:52;5.22;;;3.92;;
50543;SDS011;41176;44.032;20.900;2022-07-31T09:42:20;4.63;;;4.13;;
50543;SDS011;41176;44.032;20.900;2022-07-31T09:44:50;4.43;;;3.70;;
50543;SDS011;41176;44.032;20.900;2022-07-31T09:50:21;5.82;;;4.28;;
50543;SDS011;41176;44.032;20.900;2022-07-31T09:53:06;5.60;;;4.10;;
50543;SDS011;41176;44.032;20.900;2022-07-31T09:59:17;6.25;;;4.22;;
50543;SDS011;41176;44.032;20.900;2022-07-31T10:01:52;4.70;;;4.18;;
50543;SDS011;41176;44.032;20.900;2022-07-31T10:04:21;5.05;;;4.50;;
50543;SDS011;41176;44.032;20.900;2022-07-31T10:06:49;4.82;;;4.30;;
50543;SDS011;41176;44.032;20.900;2022-07-31T10:09:29;5.03;;;4.40;;
50543;SDS011;41176;44.032;20.900;2022-07-31T10:12:06;5.32;;;4.53;;
50543;SDS011;41176;44.032;20.900;2022-07-31T10:14:48;6.50;;;4.18;;
50543;SDS011;41176;44.032;20.900;2022-07-31T10:17:16;4.75;;;4.22;;
50543;SDS011;41176;44.032;20.900;2022-07-31T10:19:54;6.30;;;4.30;;
50543;SDS011;41176;44.032;20.900;2022-07-31T10:22:30;4.63;;;3.97;;
50543;SDS011;41176;44.032;20.900;2022-07-31T10:28:42;4.28;;;3.88;;
50543;SDS011;41176;44.032;20.900;2022-07-31T10:31:16;5.07;;;3.80;;
50543;SDS011;41176;44.032;20.900;2022-07-31T10:34:24;4.28;;;3.72;;
50543;SDS011;41176;44.032;20.900;2022-07-31T10:37:17;5.45;;;4.18;;
50543;SDS011;41176;44.032;20.900;2022-07-31T10:43:44;4.80;;;4.13;;
50543;SDS011;41176;44.032;20.900;2022-07-31T10:50:04;3.95;;;2.90;;
50543;SDS011;41176;44.032;20.900;2022-07-31T10:52:44;3.53;;;3.03;;
50543;SDS011;41176;44.032;20.900;2022-07-31T10:55:13;3.50;;;2.88;;
50543;SDS011;41176;44.032;20.900;2022-07-31T10:57:40;3.83;;;2.95;;
50543;SDS011;41176;44.032;20.900;2022-07-31T11:00:21;4.57;;;3.05;;
50543;SDS011;41176;44.032;20.900;2022-07-31T11:05:51;3.75;;;3.10;;
50543;SDS011;41176;44.032;20.900;2022-07-31T11:31:17;4.68;;;3.10;;
50543;SDS011;41176;44.032;20.900;2022-07-31T11:33:44;4.55;;;3.22;;
50543;SDS011;41176;44.032;20.900;2022-07-31T11:43:20;5.53;;;3.88;;
50543;SDS011;41176;44.032;20.900;2022-07-31T11:45:51;5.18;;;4.28;;
50543;SDS011;41176;44.032;20.900;2022-07-31T11:49:23;4.60;;;4.05;;
50543;SDS011;41176;44.032;20.900;2022-07-31T11:52:32;5.65;;;4.40;;
50543;SDS011;41176;44.032;20.900;2022-07-31T11:58:46;4.70;;;3.70;;
50543;SDS011;41176;44.032;20.900;2022-07-31T12:01:51;4.97;;;3.60;;
50543;SDS011;41176;44.032;20.900;2022-07-31T12:05:01;3.90;;;3.30;;
50543;SDS011;41176;44.032;20.900;2022-07-31T12:11:27;2.95;;;2.63;;
50543;SDS011;41176;44.032;20.900;2022-07-31T12:14:18;3.85;;;2.92;;
50543;SDS011;41176;44.032;20.900;2022-07-31T12:16:52;3.17;;;2.53;;
50543;SDS011;41176;44.032;20.900;2022-07-31T12:19:28;3.05;;;2.42;;
50543;SDS011;41176;44.032;20.900;2022-07-31T12:21:57;3.97;;;2.58;;
50543;SDS011;41176;44.032;20.900;2022-07-31T12:24:24;5.43;;;2.80;;
50543;SDS011;41176;44.032;20.900;2022-07-31T12:26:51;4.43;;;2.83;;
50543;SDS011;41176;44.032;20.900;2022-07-31T12:29:19;5.20;;;2.95;;
50543;SDS011;41176;44.032;20.900;2022-07-31T12:31:54;3.72;;;2.70;;
50543;SDS011;41176;44.032;20.900;2022-07-31T12:37:23;5.00;;;2.65;;
50543;SDS011;41176;44.032;20.900;2022-07-31T12:44:47;2.80;;;1.95;;
50543;SDS011;41176;44.032;20.900;2022-07-31T12:47:39;3.33;;;2.22;;
50543;SDS011;41176;44.032;20.900;2022-07-31T12:50:05;4.18;;;2.38;;
50543;SDS011;41176;44.032;20.900;2022-07-31T12:52:31;4.43;;;2.25;;
50543;SDS011;41176;44.032;20.900;2022-07-31T12:55:00;4.93;;;2.42;;
50543;SDS011;41176;44.032;20.900;2022-07-31T12:57:32;2.83;;;1.90;;
50543;SDS011;41176;44.032;20.900;2022-07-31T12:59:57;3.95;;;2.00;;
50543;SDS011;41176;44.032;20.900;2022-07-31T13:02:23;3.30;;;2.10;;
50543;SDS011;41176;44.032;20.900;2022-07-31T13:04:49;3.35;;;2.22;;
50543;SDS011;41176;44.032;20.900;2022-07-31T13:07:15;2.83;;;2.10;;
50543;SDS011;41176;44.032;20.900;2022-07-31T13:09:40;3.30;;;2.13;;
50543;SDS011;41176;44.032;20.900;2022-07-31T13:12:06;3.88;;;2.40;;
50543;SDS011;41176;44.032;20.900;2022-07-31T13:14:33;3.55;;;2.35;;
50543;SDS011;41176;44.032;20.900;2022-07-31T13:16:59;3.38;;;2.28;;
50543;SDS011;41176;44.032;20.900;2022-07-31T13:19:25;3.45;;;2.63;;
50543;SDS011;41176;44.032;20.900;2022-07-31T13:21:51;3.15;;;2.40;;
50543;SDS011;41176;44.032;20.900;2022-07-31T13:24:17;4.55;;;2.50;;
50543;SDS011;41176;44.032;20.900;2022-07-31T13:26:44;2.95;;;2.03;;
50543;SDS011;41176;44.032;20.900;2022-07-31T13:29:10;3.33;;;2.10;;
50543;SDS011;41176;44.032;20.900;2022-07-31T13:31:37;3.55;;;2.47;;
50543;SDS011;41176;44.032;20.900;2022-07-31T13:34:03;3.97;;;2.72;;
50543;SDS011;41176;44.032;20.900;2022-07-31T13:36:29;3.72;;;2.65;;
50543;SDS011;41176;44.032;20.900;2022-07-31T13:38:55;5.00;;;2.78;;
50543;SDS011;41176;44.032;20.900;2022-07-31T13:41:21;4.78;;;2.78;;
50543;SDS011;41176;44.032;20.900;2022-07-31T13:43:55;4.65;;;3.15;;
50543;SDS011;41176;44.032;20.900;2022-07-31T13:46:23;4.32;;;2.80;;
50543;SDS011;41176;44.032;20.900;2022-07-31T13:48:51;4.20;;;2.70;;
50543;SDS011;41176;44.032;20.900;2022-07-31T13:51:20;5.72;;;4.20;;
50543;SDS011;41176;44.032;20.900;2022-07-31T13:53:48;9.55;;;7.20;;
50543;SDS011;41176;44.032;20.900;2022-07-31T13:56:15;4.85;;;4.00;;
50543;SDS011;41176;44.032;20.900;2022-07-31T13:58:41;5.57;;;3.92;;
50543;SDS011;41176;44.032;20.900;2022-07-31T14:01:07;5.03;;;3.17;;
50543;SDS011;41176;44.032;20.900;2022-07-31T14:03:33;4.95;;;2.88;;
50543;SDS011;41176;44.032;20.900;2022-07-31T14:06:00;3.47;;;2.30;;
50543;SDS011;41176;44.032;20.900;2022-07-31T14:08:25;4.03;;;2.47;;
50543;SDS011;41176;44.032;20.900;2022-07-31T14:10:51;3.85;;;2.33;;
50543;SDS011;41176;44.032;20.900;2022-07-31T14:13:18;3.95;;;2.05;;
50543;SDS011;41176;44.032;20.900;2022-07-31T14:15:45;2.63;;;1.75;;
50543;SDS011;41176;44.032;20.900;2022-07-31T14:18:11;2.88;;;2.03;;
50543;SDS011;41176;44.032;20.900;2022-07-31T14:20:37;4.28;;;2.80;;
50543;SDS011;41176;44.032;20.900;2022-07-31T14:23:03;3.50;;;2.28;;
50543;SDS011;41176;44.032;20.900;2022-07-31T14:25:36;2.95;;;1.90;;
50543;SDS011;41176;44.032;20.900;2022-07-31T14:28:03;2.92;;;1.70;;
50543;SDS011;41176;44.032;20.900;2022-07-31T14:30:29;2.55;;;1.75;;
50543;SDS011;41176;44.032;20.900;2022-07-31T14:32:56;3.65;;;1.90;;
50543;SDS011;41176;44.032;20.900;2022-07-31T14:35:22;4.28;;;1.80;;
50543;SDS011;41176;44.032;20.900;2022-07-31T14:37:48;2.97;;;1.98;;
50543;SDS011;41176;44.032;20.900;2022-07-31T14:40:14;2.75;;;2.08;;
50543;SDS011;41176;44.032;20.900;2022-07-31T14:42:40;3.33;;;1.75;;
50543;SDS011;41176;44.032;20.900;2022-07-31T14:45:06;3.38;;;1.90;;
50543;SDS011;41176;44.032;20.900;2022-07-31T14:47:33;3.95;;;2.72;;
50543;SDS011;41176;44.032;20.900;2022-07-31T14:50:00;2.50;;;1.90;;
50543;SDS011;41176;44.032;20.900;2022-07-31T14:52:26;2.60;;;1.80;;
50543;SDS011;41176;44.032;20.900;2022-07-31T14:54:52;3.85;;;1.67;;
50543;SDS011;41176;44.032;20.900;2022-07-31T14:57:18;5.30;;;2.10;;
50543;SDS011;41176;44.032;20.900;2022-07-31T14:59:43;3.38;;;2.10;;
50543;SDS011;41176;44.032;20.900;2022-07-31T15:02:09;3.80;;;2.45;;
50543;SDS011;41176;44.032;20.900;2022-07-31T15:04:37;3.65;;;2.28;;
50543;SDS011;41176;44.032;20.900;2022-07-31T15:07:03;9.13;;;5.97;;
50543;SDS011;41176;44.032;20.900;2022-07-31T15:09:29;3.42;;;2.30;;
50543;SDS011;41176;44.032;20.900;2022-07-31T15:11:55;3.55;;;2.28;;
50543;SDS011;41176;44.032;20.900;2022-07-31T15:14:21;3.20;;;1.98;;
50543;SDS011;41176;44.032;20.900;2022-07-31T15:16:47;3.00;;;2.05;;
50543;SDS011;41176;44.032;20.900;2022-07-31T15:19:13;3.75;;;1.85;;
50543;SDS011;41176;44.032;20.900;2022-07-31T15:21:40;2.88;;;2.00;;
50543;SDS011;41176;44.032;20.900;2022-07-31T15:24:08;2.63;;;1.70;;
50543;SDS011;41176;44.032;20.900;2022-07-31T15:26:34;2.97;;;1.90;;
50543;SDS011;41176;44.032;20.900;2022-07-31T15:29:00;2.65;;;1.88;;
50543;SDS011;41176;44.032;20.900;2022-07-31T15:31:26;3.50;;;2.13;;
50543;SDS011;41176;44.032;20.900;2022-07-31T15:33:53;2.90;;;2.00;;
50543;SDS011;41176;44.032;20.900;2022-07-31T15:36:22;3.47;;;2.42;;
50543;SDS011;41176;44.032;20.900;2022-07-31T15:38:49;3.97;;;2.25;;
50543;SDS011;41176;44.032;20.900;2022-07-31T15:41:15;4.15;;;2.58;;
50543;SDS011;41176;44.032;20.900;2022-07-31T15:43:41;4.70;;;2.60;;
50543;SDS011;41176;44.032;20.900;2022-07-31T15:46:08;4.15;;;2.88;;
50543;SDS011;41176;44.032;20.900;2022-07-31T15:48:35;3.05;;;2.00;;
50543;SDS011;41176;44.032;20.900;2022-07-31T15:51:02;3.53;;;2.15;;
50543;SDS011;41176;44.032;20.900;2022-07-31T15:53:29;2.90;;;2.15;;
50543;SDS011;41176;44.032;20.900;2022-07-31T15:55:55;3.33;;;1.92;;
50543;SDS011;41176;44.032;20.900;2022-07-31T15:58:21;2.72;;;2.00;;
50543;SDS011;41176;44.032;20.900;2022-07-31T16:00:47;3.13;;;2.10;;
50543;SDS011;41176;44.032;20.900;2022-07-31T16:03:13;2.70;;;1.88;;
50543;SDS011;41176;44.032;20.900;2022-07-31T16:05:38;2.92;;;2.15;;
50543;SDS011;41176;44.032;20.900;2022-07-31T16:08:05;4.68;;;2.22;;
50543;SDS011;41176;44.032;20.900;2022-07-31T16:10:34;2.88;;;1.90;;
50543;SDS011;41176;44.032;20.900;2022-07-31T16:13:01;2.78;;;1.75;;
50543;SDS011;41176;44.032;20.900;2022-07-31T16:15:28;4.25;;;1.80;;
50543;SDS011;41176;44.032;20.900;2022-07-31T16:17:56;3.28;;;2.20;;
50543;SDS011;41176;44.032;20.900;2022-07-31T16:20:21;3.08;;;2.00;;
50543;SDS011;41176;44.032;20.900;2022-07-31T16:22:49;4.03;;;2.42;;
50543;SDS011;41176;44.032;20.900;2022-07-31T16:25:18;4.60;;;2.70;;
50543;SDS011;41176;44.032;20.900;2022-07-31T16:27:45;3.70;;;2.33;;
50543;SDS011;41176;44.032;20.900;2022-07-31T16:30:12;3.30;;;1.88;;
50543;SDS011;41176;44.032;20.900;2022-07-31T16:32:42;3.13;;;2.00;;
50543;SDS011;41176;44.032;20.900;2022-07-31T16:35:09;3.08;;;2.10;;
50543;SDS011;41176;44.032;20.900;2022-07-31T16:37:36;2.85;;;1.95;;
50543;SDS011;41176;44.032;20.900;2022-07-31T16:40:03;3.08;;;1.92;;
50543;SDS011;41176;44.032;20.900;2022-07-31T16:42:30;2.60;;;1.88;;
50543;SDS011;41176;44.032;20.900;2022-07-31T16:44:56;3.63;;;1.80;;
50543;SDS011;41176;44.032;20.900;2022-07-31T16:47:22;3.53;;;2.10;;
50543;SDS011;41176;44.032;20.900;2022-07-31T16:49:50;2.97;;;1.38;;
50543;SDS011;41176;44.032;20.900;2022-07-31T16:52:16;3.28;;;1.50;;
50543;SDS011;41176;44.032;20.900;2022-07-31T16:54:42;2.47;;;1.20;;
50543;SDS011;41176;44.032;20.900;2022-07-31T16:57:08;2.72;;;1.38;;
50543;SDS011;41176;44.032;20.900;2022-07-31T16:59:35;4.43;;;1.45;;
50543;SDS011;41176;44.032;20.900;2022-07-31T17:02:02;2.03;;;1.20;;
50543;SDS011;41176;44.032;20.900;2022-07-31T17:04:29;3.20;;;1.63;;
50543;SDS011;41176;44.032;20.900;2022-07-31T17:06:57;2.47;;;1.10;;
50543;SDS011;41176;44.032;20.900;2022-07-31T17:09:23;2.75;;;1.52;;
50543;SDS011;41176;44.032;20.900;2022-07-31T17:11:50;2.22;;;0.95;;
50543;SDS011;41176;44.032;20.900;2022-07-31T17:14:19;2.67;;;1.20;;
50543;SDS011;41176;44.032;20.900;2022-07-31T17:16:48;2.55;;;1.30;;
50543;SDS011;41176;44.032;20.900;2022-07-31T17:19:21;3.35;;;1.20;;
50543;SDS011;41176;44.032;20.900;2022-07-31T17:21:49;2.92;;;1.33;;
50543;SDS011;41176;44.032;20.900;2022-07-31T17:24:16;3.25;;;1.27;;
50543;SDS011;41176;44.032;20.900;2022-07-31T17:26:43;2.83;;;1.20;;
50543;SDS011;41176;44.032;20.900;2022-07-31T17:29:10;2.30;;;1.02;;
50543;SDS011;41176;44.032;20.900;2022-07-31T17:31:37;2.38;;;1.10;;
50543;SDS011;41176;44.032;20.900;2022-07-31T17:34:04;2.90;;;1.30;;
50543;SDS011;41176;44.032;20.900;2022-07-31T17:36:30;2.65;;;1.20;;
50543;SDS011;41176;44.032;20.900;2022-07-31T17:38:56;2.35;;;1.33;;
50543;SDS011;41176;44.032;20.900;2022-07-31T17:41:22;2.65;;;1.20;;
50543;SDS011;41176;44.032;20.900;2022-07-31T17:43:50;2.80;;;1.10;;
50543;SDS011;41176;44.032;20.900;2022-07-31T17:46:15;2.63;;;1.08;;
50543;SDS011;41176;44.032;20.900;2022-07-31T17:48:41;2.20;;;0.90;;
50543;SDS011;41176;44.032;20.900;2022-07-31T17:51:07;2.00;;;0.90;;
50543;SDS011;41176;44.032;20.900;2022-07-31T17:53:34;1.95;;;1.08;;
50543;SDS011;41176;44.032;20.900;2022-07-31T17:56:01;2.63;;;1.05;;
50543;SDS011;41176;44.032;20.900;2022-07-31T17:58:29;2.13;;;1.00;;
50543;SDS011;41176;44.032;20.900;2022-07-31T18:00:55;3.80;;;0.98;;
50543;SDS011;41176;44.032;20.900;2022-07-31T18:03:21;2.10;;;1.10;;
50543;SDS011;41176;44.032;20.900;2022-07-31T18:05:47;1.98;;;1.00;;
50543;SDS011;41176;44.032;20.900;2022-07-31T18:08:13;2.50;;;1.23;;
50543;SDS011;41176;44.032;20.900;2022-07-31T18:10:40;2.40;;;1.00;;
50543;SDS011;41176;44.032;20.900;2022-07-31T18:13:06;4.30;;;1.60;;
50543;SDS011;41176;44.032;20.900;2022-07-31T18:15:32;2.95;;;1.50;;
50543;SDS011;41176;44.032;20.900;2022-07-31T18:17:58;3.15;;;1.70;;
50543;SDS011;41176;44.032;20.900;2022-07-31T18:20:23;3.85;;;2.20;;
50543;SDS011;41176;44.032;20.900;2022-07-31T18:22:49;7.43;;;3.03;;
50543;SDS011;41176;44.032;20.900;2022-07-31T18:25:15;4.43;;;2.15;;
50543;SDS011;41176;44.032;20.900;2022-07-31T18:27:41;3.22;;;1.80;;
50543;SDS011;41176;44.032;20.900;2022-07-31T18:30:08;3.53;;;1.77;;
50543;SDS011;41176;44.032;20.900;2022-07-31T18:32:35;4.10;;;1.90;;
50543;SDS011;41176;44.032;20.900;2022-07-31T18:35:02;2.83;;;1.50;;
50543;SDS011;41176;44.032;20.900;2022-07-31T18:37:28;4.47;;;1.55;;
50543;SDS011;41176;44.032;20.900;2022-07-31T18:39:55;2.85;;;1.40;;
50543;SDS011;41176;44.032;20.900;2022-07-31T18:42:24;2.83;;;1.30;;
50543;SDS011;41176;44.032;20.900;2022-07-31T18:44:54;3.70;;;1.35;;
50543;SDS011;41176;44.032;20.900;2022-07-31T18:47:20;3.58;;;1.63;;
50543;SDS011;41176;44.032;20.900;2022-07-31T18:49:47;3.60;;;1.48;;
50543;SDS011;41176;44.032;20.900;2022-07-31T18:52:13;2.80;;;1.80;;
50543;SDS011;41176;44.032;20.900;2022-07-31T18:54:39;3.42;;;1.60;;
50543;SDS011;41176;44.032;20.900;2022-07-31T18:57:04;3.78;;;1.83;;
50543;SDS011;41176;44.032;20.900;2022-07-31T18:59:32;3.55;;;2.00;;
50543;SDS011;41176;44.032;20.900;2022-07-31T19:01:58;4.03;;;1.98;;
50543;SDS011;41176;44.032;20.900;2022-07-31T19:04:24;6.88;;;3.45;;
50543;SDS011;41176;44.032;20.900;2022-07-31T19:06:50;10.82;;;4.78;;
50543;SDS011;41176;44.032;20.900;2022-07-31T19:09:17;5.95;;;3.65;;
50543;SDS011;41176;44.032;20.900;2022-07-31T19:11:44;6.30;;;3.28;;
50543;SDS011;41176;44.032;20.900;2022-07-31T19:14:10;6.93;;;2.58;;
50543;SDS011;41176;44.032;20.900;2022-07-31T19:16:37;6.00;;;2.38;;
50543;SDS011;41176;44.032;20.900;2022-07-31T19:19:03;5.93;;;3.25;;
50543;SDS011;41176;44.032;20.900;2022-07-31T19:21:29;6.68;;;2.60;;
50543;SDS011;41176;44.032;20.900;2022-07-31T19:23:54;5.15;;;2.30;;
50543;SDS011;41176;44.032;20.900;2022-07-31T19:26:20;3.40;;;2.25;;
50543;SDS011;41176;44.032;20.900;2022-07-31T19:28:46;3.70;;;1.90;;
50543;SDS011;41176;44.032;20.900;2022-07-31T19:31:12;4.88;;;1.88;;
50543;SDS011;41176;44.032;20.900;2022-07-31T19:33:38;4.07;;;1.70;;
50543;SDS011;41176;44.032;20.900;2022-07-31T19:36:04;3.67;;;1.73;;
50543;SDS011;41176;44.032;20.900;2022-07-31T19:38:30;2.85;;;1.40;;
50543;SDS011;41176;44.032;20.900;2022-07-31T19:40:57;3.15;;;1.60;;
50543;SDS011;41176;44.032;20.900;2022-07-31T19:43:23;5.68;;;1.90;;
50543;SDS011;41176;44.032;20.900;2022-07-31T19:45:49;2.92;;;1.63;;
50543;SDS011;41176;44.032;20.900;2022-07-31T19:48:14;5.10;;;1.50;;
50543;SDS011;41176;44.032;20.900;2022-07-31T19:50:40;2.35;;;1.30;;
50543;SDS011;41176;44.032;20.900;2022-07-31T19:53:06;3.42;;;1.48;;
50543;SDS011;41176;44.032;20.900;2022-07-31T19:55:32;2.20;;;1.27;;
50543;SDS011;41176;44.032;20.900;2022-07-31T19:57:57;2.30;;;1.30;;
50543;SDS011;41176;44.032;20.900;2022-07-31T20:00:23;2.70;;;1.30;;
50543;SDS011;41176;44.032;20.900;2022-07-31T20:02:49;2.88;;;1.60;;
50543;SDS011;41176;44.032;20.900;2022-07-31T20:05:15;3.97;;;1.45;;
50543;SDS011;41176;44.032;20.900;2022-07-31T20:07:41;2.17;;;1.40;;
50543;SDS011;41176;44.032;20.900;2022-07-31T20:10:08;4.65;;;1.35;;
50543;SDS011;41176;44.032;20.900;2022-07-31T20:12:34;3.47;;;1.50;;
50543;SDS011;41176;44.032;20.900;2022-07-31T20:15:01;3.85;;;1.58;;
50543;SDS011;41176;44.032;20.900;2022-07-31T20:17:27;2.50;;;1.40;;
50543;SDS011;41176;44.032;20.900;2022-07-31T20:19:54;5.47;;;2.30;;
50543;SDS011;41176;44.032;20.900;2022-07-31T20:22:20;4.85;;;2.70;;
50543;SDS011;41176;44.032;20.900;2022-07-31T20:24:45;8.05;;;2.95;;
50543;SDS011;41176;44.032;20.900;2022-07-31T20:27:11;5.07;;;2.60;;
50543;SDS011;41176;44.032;20.900;2022-07-31T20:29:38;4.60;;;2.78;;
50543;SDS011;41176;44.032;20.900;2022-07-31T20:32:04;4.97;;;2.40;;
50543;SDS011;41176;44.032;20.900;2022-07-31T20:34:30;5.68;;;2.70;;
50543;SDS011;41176;44.032;20.900;2022-07-31T20:36:56;3.97;;;2.25;;
50543;SDS011;41176;44.032;20.900;2022-07-31T20:39:25;5.63;;;2.30;;
50543;SDS011;41176;44.032;20.900;2022-07-31T20:41:51;4.68;;;2.67;;
50543;SDS011;41176;44.032;20.900;2022-07-31T20:44:17;6.35;;;2.90;;
50543;SDS011;41176;44.032;20.900;2022-07-31T20:46:43;3.63;;;2.38;;
50543;SDS011;41176;44.032;20.900;2022-07-31T20:49:09;4.68;;;2.50;;
50543;SDS011;41176;44.032;20.900;2022-07-31T20:51:35;7.00;;;2.65;;
50543;SDS011;41176;44.032;20.900;2022-07-31T20:54:01;4.28;;;2.58;;
50543;SDS011;41176;44.032;20.900;2022-07-31T20:56:27;4.70;;;2.53;;
50543;SDS011;41176;44.032;20.900;2022-07-31T20:58:52;5.38;;;2.40;;
50543;SDS011;41176;44.032;20.900;2022-07-31T21:01:19;4.63;;;2.47;;
50543;SDS011;41176;44.032;20.900;2022-07-31T21:03:45;5.30;;;2.55;;
50543;SDS011;41176;44.032;20.900;2022-07-31T21:06:11;4.53;;;2.40;;
50543;SDS011;41176;44.032;20.900;2022-07-31T21:08:37;4.70;;;2.65;;
50543;SDS011;41176;44.032;20.900;2022-07-31T21:11:04;4.82;;;2.45;;
50543;SDS011;41176;44.032;20.900;2022-07-31T21:13:30;3.53;;;1.92;;
50543;SDS011;41176;44.032;20.900;2022-07-31T21:15:56;5.53;;;2.22;;
50543;SDS011;41176;44.032;20.900;2022-07-31T21:18:22;4.72;;;2.45;;
50543;SDS011;41176;44.032;20.900;2022-07-31T21:20:48;4.40;;;2.00;;
50543;SDS011;41176;44.032;20.900;2022-07-31T21:23:15;4.00;;;2.60;;
50543;SDS011;41176;44.032;20.900;2022-07-31T21:25:41;3.75;;;2.38;;
50543;SDS011;41176;44.032;20.900;2022-07-31T21:28:07;4.35;;;2.47;;
50543;SDS011;41176;44.032;20.900;2022-07-31T21:30:37;4.60;;;2.70;;
50543;SDS011;41176;44.032;20.900;2022-07-31T21:33:04;8.32;;;2.35;;
50543;SDS011;41176;44.032;20.900;2022-07-31T21:35:31;5.22;;;2.17;;
50543;SDS011;41176;44.032;20.900;2022-07-31T21:37:57;5.10;;;2.58;;
50543;SDS011;41176;44.032;20.900;2022-07-31T21:40:23;7.57;;;2.58;;
50543;SDS011;41176;44.032;20.900;2022-07-31T21:42:49;4.75;;;2.72;;
50543;SDS011;41176;44.032;20.900;2022-07-31T21:45:15;5.80;;;2.50;;
50543;SDS011;41176;44.032;20.900;2022-07-31T21:47:42;3.88;;;2.30;;
50543;SDS011;41176;44.032;20.900;2022-07-31T21:50:10;5.03;;;2.03;;
50543;SDS011;41176;44.032;20.900;2022-07-31T21:52:38;5.40;;;2.47;;
50543;SDS011;41176;44.032;20.900;2022-07-31T21:55:04;4.70;;;2.50;;
50543;SDS011;41176;44.032;20.900;2022-07-31T21:57:31;4.25;;;2.30;;
50543;SDS011;41176;44.032;20.900;2022-07-31T21:59:57;5.38;;;2.65;;
50543;SDS011;41176;44.032;20.900;2022-07-31T22:02:23;4.43;;;2.53;;
50543;SDS011;41176;44.032;20.900;2022-07-31T22:04:50;4.05;;;2.45;;
50543;SDS011;41176;44.032;20.900;2022-07-31T22:07:44;5.72;;;2.90;;
50543;SDS011;41176;44.032;20.900;2022-07-31T22:10:11;5.00;;;3.30;;